createdAt,value
2023-03-07T00:01:53.488Z,100958.69
2023-03-07T00:04:58.161Z,100951.13
2023-03-07T00:08:02.433Z,100966.09
2023-03-07T00:11:09.405Z,100969.81
2023-03-07T00:14:13.625Z,100975.50
2023-03-07T00:17:18.450Z,100961.59
2023-03-07T00:20:23.004Z,100978.66
2023-03-07T00:23:27.605Z,100976.59
2023-03-07T00:26:32.371Z,100977.53
2023-03-07T00:29:36.833Z,100971.91
2023-03-07T00:32:41.317Z,100974.63
2023-03-07T00:35:45.627Z,100954.56
2023-03-07T00:38:50.907Z,100968.38
2023-03-07T00:41:55.441Z,100973.53
2023-03-07T00:44:59.677Z,100968.47
2023-03-07T00:48:04.358Z,100971.06
2023-03-07T00:51:12.058Z,100979.59
2023-03-07T00:54:17.126Z,100970.28
2023-03-07T00:57:21.424Z,100968.84
2023-03-07T01:00:25.810Z,100972.06
2023-03-07T01:03:31.082Z,100965.16
2023-03-07T01:06:36.697Z,100974.53
2023-03-07T01:09:40.694Z,100973.88
2023-03-07T01:12:48.425Z,100964.13
2023-03-07T01:15:52.833Z,100961.13
2023-03-07T01:19:00.387Z,100963.41
2023-03-07T01:22:08.371Z,100953.13
2023-03-07T01:25:13.930Z,100964.63
2023-03-07T01:28:18.165Z,100942.66
2023-03-07T01:31:23.019Z,100938.66
2023-03-07T01:34:27.477Z,100945.81
2023-03-07T01:37:31.871Z,100908.97
2023-03-07T01:40:36.233Z,100939.63
2023-03-07T01:43:41.001Z,100898.75
2023-03-07T01:46:56.668Z,100941.38
2023-03-07T01:50:21.117Z,100936.56
2023-03-07T01:53:25.009Z,100891.72
2023-03-07T01:56:29.867Z,100912.84
2023-03-07T01:59:38.085Z,100923.69
2023-03-07T02:02:45.752Z,100934.16
2023-03-07T02:05:59.808Z,100934.44
2023-03-07T02:09:04.993Z,100926.34
2023-03-07T02:12:10.085Z,100917.91
2023-03-07T02:15:16.152Z,100926.59
2023-03-07T02:18:25.197Z,100923.03
2023-03-07T02:21:47.315Z,100921.44
2023-03-07T02:24:54.909Z,100911.03
2023-03-07T02:28:00.462Z,100895.19
2023-03-07T02:31:08.522Z,100907.53
2023-03-07T02:34:29.822Z,100902.25
2023-03-07T02:37:48.696Z,100900.44
2023-03-07T02:40:56.675Z,100903.91
2023-03-07T02:44:01.243Z,100875.81
2023-03-07T02:47:09.777Z,100879.38
2023-03-07T02:50:16.253Z,100850.38
2023-03-07T02:53:23.317Z,100894.22
2023-03-07T02:56:27.236Z,100903.84
2023-03-07T02:59:31.897Z,100861.66
2023-03-07T03:02:36.424Z,100879.28
2023-03-07T03:05:40.548Z,100889.94
2023-03-07T03:08:45.071Z,100896.00
2023-03-07T03:11:49.427Z,100879.28
2023-03-07T03:14:57.141Z,100890.69
2023-03-07T03:18:01.808Z,100903.06
2023-03-07T03:21:12.077Z,100908.31
2023-03-07T03:24:16.775Z,100898.69
2023-03-07T03:27:23.167Z,100898.63
2023-03-07T03:30:33.133Z,100897.75
2023-03-07T03:33:40.042Z,100897.81
2023-03-07T03:36:44.654Z,100897.84
2023-03-07T03:39:48.765Z,100905.72
2023-03-07T03:42:53.039Z,100894.28
2023-03-07T03:45:59.817Z,100899.44
2023-03-07T03:49:06.200Z,100893.34
2023-03-07T03:52:11.514Z,100897.69
2023-03-07T03:55:16.439Z,100898.53
2023-03-07T03:58:20.927Z,100893.22
2023-03-07T04:01:27.954Z,100897.59
2023-03-07T04:04:35.589Z,100884.47
2023-03-07T04:07:40.479Z,100888.81
2023-03-07T04:10:45.299Z,100885.34
2023-03-07T04:13:50.213Z,100874.59
2023-03-07T04:16:54.964Z,100871.25
2023-03-07T04:19:59.404Z,100873.88
2023-03-07T04:23:04.113Z,100863.22
2023-03-07T04:26:10.338Z,100856.22
2023-03-07T04:29:15.610Z,100858.06
2023-03-07T04:32:27.973Z,100854.44
2023-03-07T04:35:32.767Z,100852.69
2023-03-07T04:38:39.785Z,100837.75
2023-03-07T04:41:43.753Z,100824.56
2023-03-07T04:44:59.438Z,100837.47
2023-03-07T04:48:04.303Z,100836.91
2023-03-07T04:51:10.624Z,100836.72
2023-03-07T04:54:15.108Z,100806.31
2023-03-07T04:57:21.828Z,100829.97
2023-03-07T05:00:26.250Z,100826.47
2023-03-07T05:03:31.539Z,100816.06
2023-03-07T05:06:36.230Z,100815.13
2023-03-07T05:09:40.791Z,100809.06
2023-03-07T05:12:45.393Z,100812.34
2023-03-07T05:15:58.160Z,100804.34
2023-03-07T05:19:05.932Z,100819.13
2023-03-07T05:22:10.535Z,100821.19
2023-03-07T05:25:15.442Z,100807.94
2023-03-07T05:28:20.282Z,100821.13
2023-03-07T05:31:25.307Z,100817.53
2023-03-07T05:34:29.732Z,100814.75
2023-03-07T05:37:34.769Z,100805.97
2023-03-07T05:40:39.787Z,100812.94
2023-03-07T05:43:44.813Z,100806.78
2023-03-07T05:46:48.937Z,100804.16
2023-03-07T05:49:53.458Z,100806.81
2023-03-07T05:52:57.890Z,100805.81
2023-03-07T05:56:06.414Z,100796.41
2023-03-07T05:59:16.311Z,100795.53
2023-03-07T06:02:22.346Z,100794.66
2023-03-07T06:05:27.029Z,100793.72
2023-03-07T06:08:31.514Z,100786.94
2023-03-07T06:11:36.315Z,100796.72
2023-03-07T06:14:40.820Z,100789.72
2023-03-07T06:17:45.359Z,100792.31
2023-03-07T06:21:00.567Z,100783.53
2023-03-07T06:24:08.721Z,100794.97
2023-03-07T06:27:13.588Z,100752.03
2023-03-07T06:30:24.287Z,100775.63
2023-03-07T06:33:28.827Z,100792.31
2023-03-07T06:36:36.664Z,100763.34
2023-03-07T06:39:44.392Z,100772.09
2023-03-07T06:42:49.316Z,100787.06
2023-03-07T06:46:01.618Z,100777.41
2023-03-07T06:49:11.398Z,100773.94
2023-03-07T06:52:19.143Z,100766.88
2023-03-07T06:55:25.796Z,100764.19
2023-03-07T06:58:33.425Z,100709.00
2023-03-07T07:01:41.505Z,100757.25
2023-03-07T07:04:47.756Z,100756.47
2023-03-07T07:07:52.944Z,100755.53
2023-03-07T07:11:00.359Z,100743.22
2023-03-07T07:14:08.919Z,100702.00
2023-03-07T07:17:21.150Z,100726.56
2023-03-07T07:20:29.393Z,100641.56
2023-03-07T07:23:41.376Z,100664.34
2023-03-07T07:26:46.514Z,100710.78
2023-03-07T07:29:51.212Z,100703.81
2023-03-07T07:32:56.153Z,100689.75
2023-03-07T07:36:03.226Z,100685.41
2023-03-07T07:39:08.651Z,100676.66
2023-03-07T07:42:15.204Z,100661.78
2023-03-07T07:45:36.830Z,100676.66
2023-03-07T07:48:43.425Z,100677.56
2023-03-07T07:51:48.544Z,100682.84
2023-03-07T07:54:53.293Z,100663.56
2023-03-07T07:58:00.753Z,100688.09
2023-03-07T08:01:23.464Z,100688.09
2023-03-07T08:04:27.800Z,100674.09
2023-03-07T08:07:34.885Z,100691.63
2023-03-07T08:10:44.019Z,100675.81
2023-03-07T08:13:51.545Z,100676.69
2023-03-07T08:16:55.875Z,100647.75
2023-03-07T08:20:09.224Z,100666.16
2023-03-07T08:23:15.278Z,100678.41
2023-03-07T08:26:22.640Z,100682.78
2023-03-07T08:29:30.303Z,100669.63
2023-03-07T08:32:37.803Z,100665.25
2023-03-07T08:35:42.502Z,100643.31
2023-03-07T08:38:53.416Z,100664.38
2023-03-07T08:41:57.792Z,100625.84
2023-03-07T08:45:02.124Z,100595.13
2023-03-07T08:48:07.099Z,100627.56
2023-03-07T08:51:15.829Z,100638.09
2023-03-07T08:54:20.235Z,100638.06
2023-03-07T08:57:26.415Z,100610.03
2023-03-07T09:00:30.999Z,100638.06
2023-03-07T09:03:36.797Z,100593.28
2023-03-07T09:06:42.959Z,100611.63
2023-03-07T09:09:48.727Z,100599.44
2023-03-07T09:12:53.210Z,100619.63
2023-03-07T09:15:57.588Z,100624.94
2023-03-07T09:19:02.512Z,100633.72
2023-03-07T09:22:06.794Z,100629.31
2023-03-07T09:25:12.241Z,100632.84
2023-03-07T09:28:16.614Z,100602.16
2023-03-07T09:31:21.170Z,100615.31
2023-03-07T09:34:25.261Z,100626.72
2023-03-07T09:37:29.864Z,100616.19
2023-03-07T09:40:34.647Z,100600.38
2023-03-07T09:43:52.890Z,100610.81
2023-03-07T09:47:26.795Z,100641.59
2023-03-07T09:50:53.130Z,100634.56
2023-03-07T09:54:21.158Z,100651.06
2023-03-07T09:57:55.662Z,100580.94
2023-03-07T10:01:02.425Z,100631.66
2023-03-07T10:07:44.737Z,100643.72
2023-03-07T10:11:14.703Z,100613.94
2023-03-07T10:14:42.373Z,100630.66
2023-03-07T10:18:05.762Z,100624.41
2023-03-07T10:21:50.117Z,100624.41
2023-03-07T10:25:24.576Z,100616.50
2023-03-07T10:28:33.264Z,100611.25
2023-03-07T10:31:43.511Z,100605.19
2023-03-07T10:34:52.820Z,100613.94
2023-03-07T10:38:25.711Z,100603.53
2023-03-07T10:41:30.346Z,100610.63
2023-03-07T10:44:37.403Z,100612.31
2023-03-07T10:47:44.251Z,100628.91
2023-03-07T10:51:25.319Z,100622.69
2023-03-07T10:54:38.835Z,100614.03
2023-03-07T10:57:44.020Z,100585.13
2023-03-07T11:01:08.228Z,100595.34
2023-03-07T11:04:25.605Z,100582.31
2023-03-07T11:07:36.593Z,100552.44
2023-03-07T11:10:41.459Z,100570.88
2023-03-07T11:14:16.147Z,100573.47
2023-03-07T11:17:42.108Z,100582.06
2023-03-07T11:20:56.039Z,100568.06
2023-03-07T11:24:05.720Z,100584.75
2023-03-07T11:27:25.539Z,100592.66
2023-03-07T11:30:42.138Z,100582.06
2023-03-07T11:33:59.594Z,100583.72
2023-03-07T11:37:30.310Z,100590.84
2023-03-07T11:40:44.528Z,100603.81
2023-03-07T11:43:54.768Z,100606.00
2023-03-07T11:47:34.618Z,100587.63
2023-03-07T11:50:45.482Z,100564.09
2023-03-07T11:54:32.763Z,100564.06
2023-03-07T11:58:18.483Z,100572.81
2023-03-07T12:01:44.955Z,100568.34
2023-03-07T12:05:11.604Z,100557.59
2023-03-07T12:08:39.839Z,100551.78
2023-03-07T12:11:50.410Z,100535.09
2023-03-07T12:15:03.079Z,100536.03
2023-03-07T12:18:20.793Z,100534.25
2023-03-07T12:21:56.122Z,100515.78
2023-03-07T12:25:09.228Z,100515.88
2023-03-07T12:28:51.930Z,100516.03
2023-03-07T12:32:01.998Z,100450.91
2023-03-07T12:35:49.684Z,100491.41
2023-03-07T12:39:05.931Z,100488.97
2023-03-07T12:42:36.146Z,100462.75
2023-03-07T12:46:20.598Z,100470.75
2023-03-07T12:49:49.740Z,100466.25
2023-03-07T12:53:23.225Z,100434.81
2023-03-07T12:56:37.406Z,100456.75
2023-03-07T12:59:44.570Z,100467.38
2023-03-07T13:03:00.631Z,100438.47
2023-03-07T13:06:05.481Z,100459.38
2023-03-07T13:09:14.992Z,100447.28
2023-03-07T13:12:22.572Z,100454.34
2023-03-07T13:15:28.098Z,100455.34
2023-03-07T13:18:33.957Z,100463.88
2023-03-07T13:21:37.841Z,100447.03
2023-03-07T13:24:42.391Z,100445.22
2023-03-07T13:28:07.118Z,100430.31
2023-03-07T13:31:27.494Z,100446.19
2023-03-07T13:34:48.480Z,100434.97
2023-03-07T13:37:54.210Z,100429.81
2023-03-07T13:41:03.392Z,100418.31
2023-03-07T13:44:29.599Z,100415.47
2023-03-07T13:47:46.541Z,100402.19
2023-03-07T13:50:50.449Z,100408.25
2023-03-07T13:54:14.758Z,100381.03
2023-03-07T13:57:21.828Z,100383.69
2023-03-07T14:00:33.119Z,100402.97
2023-03-07T14:03:41.688Z,100378.44
2023-03-07T14:06:52.980Z,100379.50
2023-03-07T14:10:19.546Z,100342.72
2023-03-07T14:13:37.417Z,100330.44
2023-03-07T14:17:19.779Z,100354.22
2023-03-07T14:20:32.774Z,100357.66
2023-03-07T14:23:48.001Z,100353.41
2023-03-07T14:26:57.594Z,100343.81
2023-03-07T14:30:01.566Z,100291.22
2023-03-07T14:33:07.086Z,100320.97
2023-03-07T14:36:27.416Z,100320.03
2023-03-07T14:39:57.801Z,100314.94
2023-03-07T14:43:41.695Z,100310.25
2023-03-07T14:46:54.773Z,100306.13
2023-03-07T14:50:19.662Z,100312.25
2023-03-07T14:53:27.257Z,100302.59
2023-03-07T14:56:33.805Z,100305.72
2023-03-07T14:59:37.725Z,100302.28
2023-03-07T15:02:55.466Z,100286.38
2023-03-07T15:06:01.795Z,100294.84
2023-03-07T15:09:11.816Z,100294.91
2023-03-07T15:12:23.794Z,100291.16
2023-03-07T15:15:36.861Z,100268.41
2023-03-07T15:18:52.254Z,100251.59
2023-03-07T15:22:00.603Z,100299.75
2023-03-07T15:25:05.031Z,100295.16
2023-03-07T15:28:22.203Z,100301.31
2023-03-07T15:31:31.209Z,100301.28
2023-03-07T15:34:38.837Z,100304.69
2023-03-07T15:37:56.866Z,100304.84
2023-03-07T15:41:01.575Z,100316.81
2023-03-07T15:44:19.695Z,100315.75
2023-03-07T15:47:24.913Z,100306.34
2023-03-07T15:50:30.531Z,100314.09
2023-03-07T15:53:38.482Z,100317.25
2023-03-07T15:56:42.485Z,100317.41
2023-03-07T15:59:58.130Z,100322.59
2023-03-07T16:03:28.481Z,100318.22
2023-03-07T16:06:44.176Z,100327.59
2023-03-07T16:09:51.323Z,100305.91
2023-03-07T16:12:55.701Z,100327.03
2023-03-07T16:16:26.827Z,100311.16
2023-03-07T16:19:31.660Z,100329.25
2023-03-07T16:22:36.530Z,100331.28
2023-03-07T16:25:42.983Z,100341.25
2023-03-07T16:29:05.980Z,100330.56
2023-03-07T17:28:14.603Z,100396.19
2023-03-07T17:31:20.108Z,100390.03
2023-03-07T17:34:33.602Z,100407.28
2023-03-07T17:37:37.797Z,100401.63
2023-03-07T17:40:41.875Z,100404.38
2023-03-07T17:43:46.061Z,100408.41
2023-03-07T17:46:50.616Z,100417.78
2023-03-07T17:49:54.478Z,100421.34
2023-03-07T17:52:59.312Z,100431.69
2023-03-07T17:56:12.496Z,100438.72
2023-03-07T17:59:17.111Z,100443.84
2023-03-07T18:02:21.204Z,100447.75
2023-03-07T18:05:26.718Z,100395.75
2023-03-07T18:08:30.959Z,100440.97
2023-03-07T18:11:36.172Z,100442.13
2023-03-07T18:14:40.607Z,100462.69
2023-03-07T18:17:48.700Z,100460.91
2023-03-07T18:21:03.621Z,100471.59
2023-03-07T18:24:20.068Z,100482.84
2023-03-07T18:27:25.760Z,100469.41
2023-03-07T18:30:30.139Z,100491.63
2023-03-07T18:33:35.589Z,100498.84
2023-03-07T18:36:41.943Z,100507.25
2023-03-07T18:39:46.180Z,100518.41
2023-03-07T18:42:50.068Z,100521.44
2023-03-07T18:45:53.922Z,100529.53
2023-03-07T18:49:00.011Z,100539.22
2023-03-07T18:52:04.398Z,100550.13
2023-03-07T18:55:08.977Z,100559.25
2023-03-07T18:58:13.731Z,100557.34
2023-03-07T19:01:38.589Z,100568.09
2023-03-07T19:04:43.570Z,100570.50
2023-03-07T19:07:49.041Z,100571.94
2023-03-07T19:10:52.968Z,100581.31
2023-03-07T19:13:57.799Z,100584.19
2023-03-07T19:17:01.838Z,100592.47
2023-03-07T19:20:06.491Z,100606.75
2023-03-07T19:23:10.452Z,100618.25
2023-03-07T19:26:19.455Z,100629.69
2023-03-07T19:29:23.323Z,100646.09
2023-03-07T19:32:30.119Z,100661.03
2023-03-07T19:35:34.809Z,100657.34
2023-03-07T19:38:39.985Z,100669.47
2023-03-07T19:41:46.361Z,100664.63
2023-03-07T19:44:50.252Z,100674.47
2023-03-07T19:47:56.823Z,100682.00
2023-03-07T19:51:01.610Z,100680.25
2023-03-07T19:54:05.606Z,100689.88
2023-03-07T19:57:12.428Z,100691.00
2023-03-07T20:00:16.727Z,100694.44
2023-03-07T20:03:21.429Z,100703.41
2023-03-07T20:06:28.820Z,100711.94
2023-03-07T20:09:35.864Z,100699.19
2023-03-07T20:12:39.755Z,100720.09
2023-03-07T20:15:54.724Z,100720.69
2023-03-07T20:19:01.165Z,100719.75
2023-03-07T20:22:06.116Z,100746.19
2023-03-07T20:25:10.839Z,100760.38
2023-03-07T20:28:15.224Z,100765.78
2023-03-07T20:31:20.906Z,100765.47
2023-03-07T20:34:25.502Z,100772.91
2023-03-07T20:41:06.824Z,100794.97
2023-03-07T20:44:14.377Z,100799.47
2023-03-07T20:47:18.713Z,100810.78
2023-03-07T20:50:22.647Z,100804.97
2023-03-07T20:53:27.120Z,100812.22
2023-03-07T20:56:33.258Z,100822.00
2023-03-07T20:59:37.536Z,100821.03
2023-03-07T21:02:41.548Z,100833.72
2023-03-07T21:05:45.680Z,100835.97
2023-03-07T21:08:50.002Z,100842.31
2023-03-07T21:11:54.046Z,100829.59
2023-03-07T21:14:58.000Z,100851.44
2023-03-07T21:18:02.048Z,100866.19
2023-03-07T21:21:08.965Z,100865.94
2023-03-07T21:24:13.707Z,100876.94
2023-03-07T21:27:17.454Z,100882.94
2023-03-07T21:30:21.524Z,100884.59
2023-03-07T21:33:25.710Z,100897.47
2023-03-07T21:36:32.213Z,100903.56
2023-03-07T21:39:38.763Z,100731.72
2023-03-07T21:42:43.312Z,100925.50
2023-03-07T21:45:47.912Z,100930.81
2023-03-07T21:48:52.904Z,100922.22
2023-03-07T21:51:56.825Z,100938.59
2023-03-07T21:55:01.004Z,100962.00
2023-03-07T21:58:06.536Z,100912.84
2023-03-07T22:01:23.107Z,100975.00
2023-03-07T22:04:28.784Z,100977.09
2023-03-07T22:07:33.191Z,100984.66
2023-03-07T22:10:37.432Z,100983.91
2023-03-07T22:13:44.741Z,100968.31
2023-03-07T22:16:48.690Z,101001.72
2023-03-07T22:19:52.728Z,101006.16
2023-03-07T22:22:56.831Z,101013.72
2023-03-07T22:26:26.487Z,101018.84
2023-03-07T22:29:30.951Z,101028.06
2023-03-07T22:32:35.315Z,101037.56
2023-03-07T22:35:42.114Z,101032.44
2023-03-07T22:39:08.445Z,101059.75
2023-03-07T22:42:13.249Z,101072.44
2023-03-07T22:45:17.661Z,101076.97
2023-03-07T22:48:21.748Z,101077.09
2023-03-07T22:51:27.526Z,101095.19
2023-03-07T22:54:32.027Z,101092.22
2023-03-07T22:57:36.375Z,101104.22
2023-03-07T23:00:42.352Z,101115.28
2023-03-07T23:03:46.232Z,101117.16
2023-03-07T23:06:50.248Z,101126.63
2023-03-07T23:09:54.283Z,101133.09
2023-03-07T23:12:58.328Z,101138.56
2023-03-07T23:16:16.892Z,101153.53
2023-03-07T23:19:20.998Z,101157.59
2023-03-07T23:22:25.232Z,101161.66
2023-03-07T23:25:29.508Z,101173.84
2023-03-07T23:28:34.510Z,101173.28
2023-03-07T23:31:40.967Z,101179.13
2023-03-07T23:34:44.880Z,101188.69
2023-03-07T23:37:49.169Z,101190.13
2023-03-07T23:40:53.192Z,101198.63
2023-03-07T23:44:00.122Z,101082.56
2023-03-07T23:47:04.056Z,101219.31
2023-03-07T23:50:09.764Z,101206.91
2023-03-07T23:53:13.774Z,101212.50
2023-03-07T23:56:17.653Z,101205.84
2023-03-07T23:59:21.667Z,101218.47
